createdAt,value
2019-01-05T00:00:28.684Z,-2.81
2019-01-05T00:03:16.089Z,-2.84
2019-01-05T00:06:19.946Z,-2.86
2019-01-05T00:09:07.325Z,-2.95
2019-01-05T00:12:08.469Z,-2.87
2019-01-05T00:15:04.049Z,-2.94
2019-01-05T00:17:59.645Z,-2.88
2019-01-05T00:20:42.017Z,-2.90
2019-01-05T00:23:49.748Z,-2.89
2019-01-05T00:26:40.899Z,-2.89
2019-01-05T00:29:45.272Z,-2.98
2019-01-05T00:33:05.004Z,-2.90
2019-01-05T00:36:15.525Z,-2.99
2019-01-05T00:39:16.963Z,-3.04
2019-01-05T00:42:06.850Z,-3.06
2019-01-05T00:45:14.407Z,-3.05
2019-01-05T00:48:02.301Z,-3.12
2019-01-05T00:51:11.594Z,-3.28
2019-01-05T00:54:01.135Z,-3.35
2019-01-05T00:56:59.009Z,-3.36
2019-01-05T01:00:01.108Z,-3.25
2019-01-05T01:02:49.028Z,-3.41
2019-01-05T01:05:43.847Z,-3.52
2019-01-05T01:08:35.645Z,-3.28
2019-01-05T01:11:34.891Z,-3.19
2019-01-05T01:14:37.075Z,-3.14
2019-01-05T01:17:40.982Z,-3.16
2019-01-05T01:20:28.967Z,-3.03
2019-01-05T01:23:12.828Z,-2.95
2019-01-05T01:26:00.654Z,-2.79
2019-01-05T01:28:48.432Z,-2.65
2019-01-05T01:31:46.571Z,-2.41
2019-01-05T01:34:47.945Z,-2.37
2019-01-05T01:37:46.481Z,-2.42
2019-01-05T01:40:43.535Z,-2.71
2019-01-05T01:43:34.440Z,-2.96
2019-01-05T01:46:32.601Z,-3.05
2019-01-05T01:49:21.541Z,-3.20
2019-01-05T01:52:11.134Z,-3.29
2019-01-05T01:55:01.307Z,-3.33
2019-01-05T01:57:52.049Z,-3.50
2019-01-05T02:00:47.623Z,-3.58
2019-01-05T02:03:54.451Z,-3.58
2019-01-05T02:06:54.100Z,-3.59
2019-01-05T02:09:42.340Z,-3.52
2019-01-05T02:12:31.256Z,-3.53
2019-01-05T02:15:21.404Z,-3.45
2019-01-05T02:18:50.775Z,-3.41
2019-01-05T02:22:18.737Z,-3.31
2019-01-05T02:25:49.442Z,-3.31
2019-01-05T02:29:11.236Z,-3.21
2019-01-05T02:32:48.104Z,-3.08
2019-01-05T02:36:10.799Z,-2.97
2019-01-05T02:39:51.488Z,-2.92
2019-01-05T02:43:41.849Z,-2.93
2019-01-05T02:47:25.224Z,-2.90
2019-01-05T02:50:59.981Z,-2.91
2019-01-05T02:54:33.593Z,-2.96
2019-01-05T02:57:40.097Z,-3.04
2019-01-05T03:01:39.572Z,-3.16
2019-01-05T03:05:31.612Z,-3.21
2019-01-05T03:09:00.810Z,-3.17
2019-01-05T03:12:25.467Z,-3.13
2019-01-05T03:15:58.402Z,-3.14
2019-01-05T03:19:31.091Z,-3.10
2019-01-05T03:23:00.987Z,-3.08
2019-01-05T03:26:40.094Z,-3.11
2019-01-05T03:30:13.851Z,-3.07
2019-01-05T03:33:44.170Z,-3.10
2019-01-05T03:37:27.202Z,-3.15
2019-01-05T03:41:08.922Z,-3.10
2019-01-05T03:45:08.485Z,-3.11
2019-01-05T03:48:52.193Z,-3.11
2019-01-05T03:52:35.005Z,-3.10
2019-01-05T03:56:01.357Z,-3.11
2019-01-05T03:59:43.131Z,-3.11
2019-01-05T04:02:49.608Z,-3.20
2019-01-05T04:06:18.914Z,-3.21
2019-01-05T04:09:57.245Z,-3.18
2019-01-05T04:13:50.808Z,-3.19
2019-01-05T04:17:31.802Z,-3.15
2019-01-05T04:21:26.770Z,-3.15
2019-01-05T04:25:02.661Z,-3.14
2019-01-05T04:28:20.471Z,-3.19
2019-01-05T04:32:08.224Z,-3.24
2019-01-05T04:36:01.287Z,-3.27
2019-01-05T04:39:26.333Z,-3.23
2019-01-05T04:43:15.303Z,-3.02
2019-01-05T04:46:50.728Z,-2.95
2019-01-05T04:50:28.548Z,-2.99
2019-01-05T04:53:54.622Z,-3.17
2019-01-05T04:57:17.333Z,-3.22
2019-01-05T05:00:47.258Z,-3.17
2019-01-05T05:03:57.869Z,-3.24
2019-01-05T05:07:25.717Z,-3.22
2019-01-05T05:10:51.404Z,-3.22
2019-01-05T05:14:14.398Z,-3.23
2019-01-05T05:17:50.389Z,-3.15
2019-01-05T05:21:14.206Z,-3.13
2019-01-05T05:24:48.356Z,-3.19
2019-01-05T05:28:27.999Z,-3.17
2019-01-05T05:31:52.595Z,-3.11
2019-01-05T05:35:38.457Z,-3.10
2019-01-05T05:39:15.023Z,-3.10
2019-01-05T05:42:50.826Z,-3.01
2019-01-05T05:46:28.243Z,-2.95
2019-01-05T05:50:03.654Z,-3.00
2019-01-05T05:53:43.556Z,-2.99
2019-01-05T05:57:13.601Z,-2.96
2019-01-05T06:00:40.128Z,-2.94
2019-01-05T06:04:29.211Z,-2.93
2019-01-05T06:08:06.642Z,-2.94
2019-01-05T06:11:56.888Z,-2.87
2019-01-05T06:15:38.087Z,-2.76
2019-01-05T06:19:05.929Z,-2.77
2019-01-05T06:22:37.963Z,-2.82
2019-01-05T06:25:59.803Z,-2.76
2019-01-05T06:29:33.122Z,-2.76
2019-01-05T06:32:49.996Z,-2.77
2019-01-05T06:36:33.280Z,-2.63
2019-01-05T06:40:03.604Z,-2.57
2019-01-05T06:43:44.501Z,-2.52
2019-01-05T06:47:11.264Z,-2.46
2019-01-05T06:50:49.559Z,-2.39
2019-01-05T06:54:17.874Z,-2.31
2019-01-05T06:57:50.117Z,-2.33
2019-01-05T07:01:45.409Z,-2.29
2019-01-05T07:05:05.535Z,-2.27
2019-01-05T07:08:29.412Z,-2.25
2019-01-05T07:12:05.033Z,-2.19
2019-01-05T07:15:36.155Z,-2.26
2019-01-05T07:19:07.783Z,-2.21
2019-01-05T07:22:20.463Z,-2.14
2019-01-05T07:26:06.920Z,-2.04
2019-01-05T07:29:22.883Z,-2.08
2019-01-05T07:33:08.651Z,-1.86
2019-01-05T07:37:05.367Z,-1.98
2019-01-05T07:40:35.286Z,-1.94
2019-01-05T07:44:04.703Z,-1.81
2019-01-05T07:47:46.926Z,-1.75
2019-01-05T07:51:22.174Z,-1.73
2019-01-05T07:55:11.047Z,-1.71
2019-01-05T07:58:20.074Z,-1.59
2019-01-05T08:02:09.168Z,-1.45
2019-01-05T08:05:23.093Z,-1.40
2019-01-05T08:08:58.355Z,-1.75
2019-01-05T08:12:39.872Z,-1.93
2019-01-05T08:16:16.782Z,-1.87
2019-01-05T08:19:36.606Z,-1.67
2019-01-05T08:23:02.835Z,-1.81
2019-01-05T08:26:28.114Z,-1.81
2019-01-05T08:30:01.013Z,-1.81
2019-01-05T08:33:27.715Z,-1.74
2019-01-05T08:36:56.857Z,-1.59
2019-01-05T08:40:37.195Z,-1.69
2019-01-05T08:44:31.549Z,-1.65
2019-01-05T08:48:30.830Z,-1.67
2019-01-05T08:51:42.127Z,-1.76
2019-01-05T08:55:05.549Z,-1.76
2019-01-05T08:58:44.932Z,-1.68
2019-01-05T09:02:08.697Z,-1.57
2019-01-05T09:05:33.073Z,-1.59
2019-01-05T09:09:02.908Z,-1.43
2019-01-05T09:12:42.295Z,-1.42
2019-01-05T09:16:19.165Z,-1.51
2019-01-05T09:19:53.191Z,-1.44
2019-01-05T09:23:29.554Z,-1.37
2019-01-05T09:27:26.926Z,-1.18
2019-01-05T09:31:01.544Z,-1.01
2019-01-05T09:34:24.369Z,-1.12
2019-01-05T09:37:58.689Z,-1.07
2019-01-05T09:41:14.085Z,-1.15
2019-01-05T09:44:48.533Z,-1.05
2019-01-05T09:48:37.322Z,-1.13
2019-01-05T09:52:10.246Z,-1.16
2019-01-05T09:55:37.250Z,-1.15
2019-01-05T09:59:17.486Z,-1.03
2019-01-05T10:02:57.016Z,-1.04
2019-01-05T10:06:09.725Z,-1.07
2019-01-05T10:09:59.271Z,-1.10
2019-01-05T10:13:54.674Z,-1.23
2019-01-05T10:17:14.995Z,-1.10
2019-01-05T10:20:46.028Z,-1.14
2019-01-05T10:24:39.080Z,-0.88
2019-01-05T10:28:11.129Z,-0.90
2019-01-05T10:32:03.715Z,-0.68
2019-01-05T10:35:40.717Z,-0.58
2019-01-05T10:39:20.979Z,-0.60
2019-01-05T10:43:00.348Z,-0.52
2019-01-05T10:46:34.815Z,-0.63
2019-01-05T10:49:57.572Z,-0.43
2019-01-05T10:53:31.832Z,-0.57
2019-01-05T10:56:46.572Z,-0.49
2019-01-05T11:00:12.246Z,-0.38
2019-01-05T11:03:42.053Z,-0.16
2019-01-05T11:06:57.401Z,-0.11
2019-01-05T11:10:55.867Z,-0.56
2019-01-05T11:14:24.158Z,-0.24
2019-01-05T11:18:02.961Z,-0.22
2019-01-05T11:21:23.672Z,-0.15
2019-01-05T11:25:01.345Z,0.03
2019-01-05T11:28:29.088Z,-0.07
2019-01-05T11:31:56.705Z,-0.18
2019-01-05T11:35:29.805Z,-0.45
2019-01-05T11:39:07.005Z,-0.10
2019-01-05T11:42:47.701Z,-0.23
2019-01-05T11:46:16.109Z,-0.18
2019-01-05T11:49:53.037Z,-0.09
2019-01-05T11:53:39.039Z,0.02
2019-01-05T11:57:14.063Z,-0.01
2019-01-05T12:00:49.767Z,-0.20
2019-01-05T12:04:05.651Z,-0.16
2019-01-05T12:07:47.378Z,-0.28
2019-01-05T12:11:14.679Z,0.10
2019-01-05T12:14:28.323Z,0.31
2019-01-05T12:17:58.556Z,-0.14
2019-01-05T12:21:34.913Z,-0.15
2019-01-05T12:24:57.321Z,-0.07
2019-01-05T12:28:40.441Z,0.09
2019-01-05T12:32:14.050Z,0.01
2019-01-05T12:35:58.328Z,-0.25
2019-01-05T12:39:31.641Z,-0.29
2019-01-05T12:43:11.188Z,-0.39
2019-01-05T12:46:33.622Z,-0.33
2019-01-05T12:49:59.892Z,-0.28
2019-01-05T12:53:24.762Z,-0.29
2019-01-05T12:57:03.092Z,-0.40
2019-01-05T13:00:34.357Z,-0.42
2019-01-05T13:04:03.143Z,-0.45
2019-01-05T13:07:29.800Z,-0.43
2019-01-05T13:11:01.813Z,-0.52
2019-01-05T13:14:38.764Z,-0.55
2019-01-05T13:17:54.656Z,-0.55
2019-01-05T13:21:34.776Z,-0.55
2019-01-05T13:25:24.298Z,-0.56
2019-01-05T13:28:49.132Z,-0.57
2019-01-05T13:32:32.251Z,-0.47
2019-01-05T13:36:07.822Z,-0.55
2019-01-05T13:39:45.388Z,-0.57
2019-01-05T13:43:15.543Z,-0.61
2019-01-05T13:47:01.166Z,-0.51
2019-01-05T13:50:25.222Z,-0.56
2019-01-05T13:53:46.417Z,-0.54
2019-01-05T13:56:46.644Z,-0.55
2019-01-05T13:59:34.174Z,-0.57
2019-01-05T14:02:35.243Z,-0.63
2019-01-05T14:05:43.019Z,-0.62
2019-01-05T14:08:48.000Z,-0.60
2019-01-05T14:11:45.602Z,-0.57
2019-01-05T14:14:40.194Z,-0.81
2019-01-05T14:17:28.996Z,-0.65
2019-01-05T14:20:23.778Z,-0.64
2019-01-05T14:23:11.716Z,-0.67
2019-01-05T14:26:09.496Z,-0.72
2019-01-05T14:29:04.771Z,-0.72
2019-01-05T14:31:52.527Z,-0.69
2019-01-05T14:34:51.755Z,-0.69
2019-01-05T14:49:16.401Z,-0.43
2019-01-05T14:52:20.261Z,-0.56
2019-01-05T14:55:16.682Z,-0.56
2019-01-05T14:58:23.809Z,-0.47
2019-01-05T15:01:28.033Z,-0.37
2019-01-05T15:04:16.696Z,-0.17
2019-01-05T15:07:04.306Z,-0.21
2019-01-05T15:09:52.997Z,-0.22
2019-01-05T15:12:44.627Z,-0.18
2019-01-05T15:15:30.688Z,-0.26
2019-01-05T15:18:28.600Z,-0.37
2019-01-05T15:21:35.572Z,-0.48
2019-01-05T15:24:42.752Z,-0.32
2019-01-05T15:27:49.613Z,-0.37
2019-01-05T15:30:46.868Z,-0.30
2019-01-05T15:33:35.331Z,-0.24
2019-01-05T15:36:22.888Z,-0.35
2019-01-05T15:39:24.066Z,-0.59
2019-01-05T15:42:12.784Z,-0.34
2019-01-05T15:45:07.849Z,-0.24
2019-01-05T15:47:58.027Z,-0.31
2019-01-05T15:50:55.727Z,-0.53
2019-01-05T15:53:47.211Z,-0.59
2019-01-05T15:56:35.945Z,-0.63
2019-01-05T15:59:38.313Z,-0.60
2019-01-05T16:02:25.710Z,-0.62
2019-01-05T16:05:17.230Z,-0.68
2019-01-05T16:08:21.033Z,-0.76
2019-01-05T16:11:21.865Z,-0.75
2019-01-05T16:14:09.969Z,-0.75
2019-01-05T16:17:01.684Z,-0.75
2019-01-05T16:19:56.186Z,-0.73
2019-01-05T16:22:51.067Z,-0.68
2019-01-05T16:25:38.318Z,-0.81
2019-01-05T16:28:27.136Z,-0.80
2019-01-05T16:31:21.728Z,-0.86
2019-01-05T16:34:17.767Z,-0.86
2019-01-05T16:37:05.109Z,-0.82
2019-01-05T16:40:12.626Z,-0.83
2019-01-05T16:43:06.449Z,-0.82
2019-01-05T16:45:58.295Z,-0.97
2019-01-05T16:48:45.445Z,-0.79
2019-01-05T16:51:33.058Z,-0.69
2019-01-05T16:54:20.382Z,-0.79
2019-01-05T16:57:08.013Z,-0.75
2019-01-05T16:59:56.666Z,-0.70
2019-01-05T17:03:00.638Z,-0.63
2019-01-05T17:05:53.647Z,-0.83
2019-01-05T17:09:00.393Z,-0.97
2019-01-05T17:12:03.923Z,-1.08
2019-01-05T17:14:51.450Z,-1.23
2019-01-05T17:17:30.954Z,-1.45
2019-01-05T17:20:14.430Z,-1.54
2019-01-05T17:23:02.198Z,-1.60
2019-01-05T17:25:54.476Z,-1.80
2019-01-05T17:28:49.936Z,-1.95
2019-01-05T17:31:44.873Z,-1.99
2019-01-05T17:34:36.204Z,-2.11
2019-01-05T17:37:25.214Z,-2.14
2019-01-05T17:40:22.717Z,-2.11
2019-01-05T17:43:21.845Z,-2.17
2019-01-05T17:46:19.947Z,-2.17
2019-01-05T17:49:14.864Z,-2.13
2019-01-05T17:52:15.810Z,-2.04
2019-01-05T17:55:04.685Z,-2.07
2019-01-05T17:57:52.252Z,-2.15
2019-01-05T18:00:40.778Z,-1.90
2019-01-05T18:03:38.121Z,-1.90
2019-01-05T18:06:39.343Z,-1.75
2019-01-05T18:09:31.282Z,-1.81
2019-01-05T18:12:19.122Z,-1.77
2019-01-05T18:15:20.042Z,-1.72
2019-01-05T18:18:23.969Z,-1.73
2019-01-05T18:21:18.622Z,-1.54
2019-01-05T18:24:02.594Z,-1.54
2019-01-05T18:26:57.773Z,-1.57
2019-01-05T18:29:52.749Z,-1.61
2019-01-05T18:32:44.251Z,-1.85
2019-01-05T18:35:51.602Z,-2.00
2019-01-05T18:38:39.117Z,-2.16
2019-01-05T18:41:29.007Z,-2.26
2019-01-05T18:44:29.909Z,-2.30
2019-01-05T18:47:21.233Z,-2.25
2019-01-05T18:50:13.706Z,-2.35
2019-01-05T18:53:08.639Z,-2.30
2019-01-05T18:56:00.400Z,-2.36
2019-01-05T18:58:48.530Z,-2.31
2019-01-05T19:01:38.977Z,-2.33
2019-01-05T19:04:26.684Z,-2.38
2019-01-05T19:07:24.391Z,-2.49
2019-01-05T19:10:13.446Z,-2.46
2019-01-05T19:13:00.756Z,-2.48
2019-01-05T19:16:01.504Z,-2.45
2019-01-05T19:19:02.130Z,-2.48
2019-01-05T19:22:03.125Z,-2.47
2019-01-05T19:24:51.853Z,-2.41
2019-01-05T19:27:43.719Z,-2.42
2019-01-05T19:30:32.394Z,-2.46
2019-01-05T19:33:21.219Z,-2.48
2019-01-05T19:36:15.914Z,-2.49
2019-01-05T19:39:04.713Z,-2.50
2019-01-05T19:42:08.609Z,-2.44
2019-01-05T19:45:09.297Z,-2.46
2019-01-05T19:47:56.546Z,-2.46
2019-01-05T19:50:55.406Z,-2.47
2019-01-05T19:53:44.281Z,-2.47
2019-01-05T19:56:31.865Z,-2.48
2019-01-05T19:59:19.429Z,-2.46
2019-01-05T20:02:08.141Z,-2.49
2019-01-05T20:05:09.879Z,-2.34
2019-01-05T20:07:58.554Z,-2.43
2019-01-05T20:10:53.319Z,-2.47
2019-01-05T20:13:42.025Z,-2.46
2019-01-05T20:16:29.604Z,-2.44
2019-01-05T20:19:29.836Z,-2.47
2019-01-05T20:22:24.417Z,-2.49
2019-01-05T20:25:19.253Z,-2.47
2019-01-05T20:28:10.952Z,-2.42
2019-01-05T20:31:06.043Z,-2.36
2019-01-05T20:33:54.731Z,-2.43
2019-01-05T20:36:52.787Z,-2.30
2019-01-05T20:39:37.545Z,-2.38
2019-01-05T20:42:26.230Z,-2.34
2019-01-05T20:45:14.956Z,-2.34
2019-01-05T20:48:02.425Z,-2.26
2019-01-05T20:50:50.917Z,-2.25
2019-01-05T20:53:42.984Z,-2.23
2019-01-05T20:56:33.629Z,-2.36
2019-01-05T20:59:41.665Z,-2.40
2019-01-05T21:02:37.825Z,-2.40
2019-01-05T21:05:29.835Z,-2.37
2019-01-05T21:08:18.697Z,-2.31
2019-01-05T21:11:13.508Z,-2.33
2019-01-05T21:14:08.277Z,-2.27
2019-01-05T21:16:56.957Z,-2.35
2019-01-05T21:19:52.859Z,-2.21
2019-01-05T21:22:40.697Z,-2.11
2019-01-05T21:25:29.810Z,-2.02
2019-01-05T21:28:37.006Z,-2.06
2019-01-05T21:31:24.674Z,-2.00
2019-01-05T21:34:13.235Z,-2.07
2019-01-05T21:37:05.934Z,-2.00
2019-01-05T21:40:06.866Z,-2.03
2019-01-05T21:43:07.471Z,-2.18
2019-01-05T21:45:55.073Z,-2.31
2019-01-05T21:48:42.365Z,-2.29
2019-01-05T21:51:40.867Z,-2.30
2019-01-05T21:54:37.198Z,-2.30
2019-01-05T21:57:25.033Z,-2.28
2019-01-05T22:00:12.582Z,-2.32
2019-01-05T22:03:11.931Z,-2.30
2019-01-05T22:06:03.486Z,-2.29
2019-01-05T22:08:52.493Z,-2.25
2019-01-05T22:11:44.140Z,-2.24
2019-01-05T22:14:40.740Z,-2.25
2019-01-05T22:17:28.456Z,-2.44
2019-01-05T22:20:17.798Z,-2.57
2019-01-05T22:23:09.063Z,-2.56
2019-01-05T22:26:01.033Z,-2.56
2019-01-05T22:28:49.760Z,-2.57
2019-01-05T22:31:37.423Z,-2.52
2019-01-05T22:34:34.951Z,-2.64
2019-01-05T22:37:22.218Z,-2.67
2019-01-05T22:40:22.881Z,-2.81
2019-01-05T22:43:23.651Z,-2.88
2019-01-05T22:46:12.320Z,-2.90
2019-01-05T22:49:01.127Z,-2.95
2019-01-05T22:51:51.977Z,-2.98
2019-01-05T22:54:39.346Z,-3.02
2019-01-05T22:57:34.054Z,-3.03
2019-01-05T23:00:22.730Z,-3.03
2019-01-05T23:03:10.156Z,-2.98
2019-01-05T23:06:01.708Z,-3.07
2019-01-05T23:09:05.741Z,-3.18
2019-01-05T23:12:03.957Z,-3.27
2019-01-05T23:14:51.416Z,-3.36
2019-01-05T23:17:39.399Z,-3.42
2019-01-05T23:20:26.517Z,-3.46
2019-01-05T23:23:30.346Z,-3.52
2019-01-05T23:26:21.565Z,-3.60
2019-01-05T23:29:15.024Z,-3.64
2019-01-05T23:32:01.698Z,-3.72
2019-01-05T23:35:09.385Z,-3.66
2019-01-05T23:37:56.775Z,-3.63
2019-01-05T23:40:44.653Z,-3.70
2019-01-05T23:43:45.738Z,-3.79
2019-01-05T23:46:34.458Z,-3.86
2019-01-05T23:49:23.171Z,-3.94
2019-01-05T23:52:30.253Z,-4.02
2019-01-05T23:55:17.939Z,-4.02
2019-01-05T23:58:12.397Z,-4.08
